Time;durP1;ratioP1;P1;durP2;ratioP2;P2;SDS_P1;SDS_P2;PMS_P1;PMS_P2;Temp;Humidity;BMP_temperature;BMP_pressure;BME280_temperature;BME280_humidity;BME280_pressure;Samples;Min_cycle;Max_cycle;Signal;HPM_P1;HPM_P2
2022/06/03 00:03:00;;;;;;;2.63;1.92;;;;;19.20;101908.00;;;;5065480;28;21051;-77
2022/06/03 00:05:53;;;;;;;2.22;1.85;;;;;19.30;101904.00;;;;5065464;28;20194;-77
2022/06/03 00:08:57;;;;;;;2.55;2.33;;;;;19.20;101900.00;;;;5069116;28;20222;-77
2022/06/03 00:11:41;;;;;;;1.95;1.70;;;;;19.30;101898.00;;;;5066630;28;20195;-77
2022/06/03 00:14:42;;;;;;;5.90;2.28;;;;;19.20;101890.00;;;;5055455;28;20202;-78
2022/06/03 00:17:22;;;;;;;3.53;2.20;;;;;19.20;101896.00;;;;5055970;28;20250;-77
2022/06/03 00:20:02;;;;;;;1.98;1.77;;;;;19.20;101894.00;;;;5056494;28;20225;-77
2022/06/03 00:23:15;;;;;;;3.05;2.25;;;;;19.10;101895.00;;;;5070919;28;20634;-77
2022/06/03 00:26:12;;;;;;;2.55;2.08;;;;;19.10;101894.00;;;;4981632;28;20368;-77
2022/06/03 00:29:00;;;;;;;2.65;2.30;;;;;19.10;101894.00;;;;4979374;28;20755;-77
2022/06/03 00:31:46;;;;;;;3.00;2.10;;;;;19.10;101892.00;;;;5052294;28;20199;-78
2022/06/03 00:34:32;;;;;;;2.35;1.85;;;;;19.10;101890.00;;;;5058103;28;20202;-77
2022/06/03 00:37:16;;;;;;;1.80;1.70;;;;;19.10;101885.00;;;;5067180;28;20198;-77
2022/06/03 00:39:56;;;;;;;2.78;2.30;;;;;19.10;101887.00;;;;5064062;28;20202;-77
2022/06/03 00:42:44;;;;;;;4.15;2.65;;;;;19.00;101883.00;;;;5068556;28;21014;-77
2022/06/03 00:45:30;;;;;;;2.95;2.10;;;;;19.00;101889.00;;;;5069087;28;20208;-76
2022/06/03 00:48:21;;;;;;;2.42;2.22;;;;;19.00;101881.00;;;;5061113;28;20190;-76
2022/06/03 00:51:13;;;;;;;2.20;1.95;;;;;18.90;101890.00;;;;5061323;28;20550;-76
2022/06/03 00:54:02;;;;;;;3.63;2.10;;;;;18.90;101882.00;;;;5065273;28;20199;-77
2022/06/03 00:57:08;;;;;;;2.22;2.03;;;;;18.90;101878.00;;;;5069478;28;20210;-77
2022/06/03 01:00:03;;;;;;;2.45;2.25;;;;;18.90;101889.00;;;;5040339;28;20186;-77
2022/06/03 01:02:50;;;;;;;3.45;1.98;;;;;18.80;101881.00;;;;5064399;28;20199;-77
2022/06/03 01:05:30;;;;;;;2.15;1.95;;;;;18.90;101875.00;;;;5065132;28;20202;-77
2022/06/03 01:08:10;;;;;;;2.22;1.92;;;;;18.80;101877.00;;;;5063984;28;20724;-77
2022/06/03 01:11:05;;;;;;;2.58;2.38;;;;;18.80;101871.00;;;;5064502;28;20549;-77
2022/06/03 01:13:50;;;;;;;3.13;2.20;;;;;18.80;101874.00;;;;5064289;28;20199;-77
2022/06/03 01:16:41;;;;;;;2.85;2.08;;;;;18.70;101870.00;;;;5064574;28;20194;-78
2022/06/03 01:19:20;;;;;;;2.33;2.05;;;;;18.80;101872.00;;;;5054287;28;20203;-77
2022/06/03 01:22:00;;;;;;;2.25;2.05;;;;;18.80;101871.00;;;;5049147;28;20230;-77
2022/06/03 01:25:02;;;;;;;2.55;2.28;;;;;18.70;101870.00;;;;5052553;28;20605;-77
2022/06/03 01:27:57;;;;;;;2.20;2.00;;;;;18.70;101871.00;;;;5054377;28;20194;-77
2022/06/03 01:30:32;;;;;;;2.15;1.95;;;;;18.80;101870.00;;;;5067707;28;20201;-77
2022/06/03 01:33:26;;;;;;;2.60;2.20;;;;;18.70;101876.00;;;;5064210;28;20191;-77
2022/06/03 01:36:21;;;;;;;3.00;1.92;;;;;18.70;101865.00;;;;5058716;28;20199;-77
2022/06/03 01:39:31;;;;;;;2.38;2.17;;;;;18.60;101853.00;;;;5058013;28;20203;-77
2022/06/03 01:42:28;;;;;;;2.17;1.98;;;;;18.70;101853.00;;;;5047267;28;20230;-77
2022/06/03 01:45:11;;;;;;;2.65;2.42;;;;;18.70;101854.00;;;;5053891;28;20206;-77
2022/06/03 01:48:10;;;;;;;2.70;2.17;;;;;18.60;101843.00;;;;5051567;28;20200;-77
2022/06/03 01:51:03;;;;;;;2.72;2.10;;;;;18.70;101844.00;;;;5053655;28;20187;-77
2022/06/03 01:53:54;;;;;;;3.03;1.90;;;;;18.70;101841.00;;;;5048960;28;20195;-76
2022/06/03 01:56:45;;;;;;;2.20;2.00;;;;;18.60;101845.00;;;;5061906;28;20250;-77
2022/06/03 01:59:42;;;;;;;2.55;1.92;;;;;18.70;101849.00;;;;5067228;28;20199;-77
2022/06/03 02:02:43;;;;;;;2.10;1.90;;;;;18.60;101838.00;;;;5064656;28;20700;-77
2022/06/03 02:05:40;;;;;;;2.28;2.08;;;;;18.60;101834.00;;;;5066626;28;20198;-77
2022/06/03 02:08:44;;;;;;;2.25;1.83;;;;;18.60;101835.00;;;;5047928;28;20219;-77
2022/06/03 02:11:47;;;;;;;3.13;1.83;;;;;18.60;101837.00;;;;5058817;28;20199;-77
2022/06/03 02:14:53;;;;;;;3.65;2.10;;;;;18.60;101819.00;;;;5052290;28;20215;-77
2022/06/03 02:18:05;;;;;;;3.35;1.80;;;;;18.50;101822.00;;;;5049763;28;20260;-77
2022/06/03 02:21:12;;;;;;;2.17;1.75;;;;;18.50;101823.00;;;;5066893;28;20222;-77
2022/06/03 02:24:16;;;;;;;2.22;1.98;;;;;18.50;101826.00;;;;5026102;28;20213;-77
2022/06/03 02:27:08;;;;;;;2.17;1.92;;;;;18.50;101825.00;;;;5066496;28;20191;-77
2022/06/03 02:32:53;;;;;;;2.60;1.70;;;;;18.40;101818.00;;;;5061129;28;20201;-76
2022/06/03 02:35:42;;;;;;;2.63;1.85;;;;;18.40;101819.00;;;;5053418;28;20206;-77
2022/06/03 02:38:42;;;;;;;2.03;1.60;;;;;18.40;101822.00;;;;5064949;28;20268;-76
2022/06/03 02:41:45;;;;;;;2.05;1.55;;;;;18.40;101823.00;;;;5067040;28;20239;-76
2022/06/03 02:44:54;;;;;;;1.83;1.65;;;;;18.40;101815.00;;;;5063286;28;20205;-77
2022/06/03 02:47:52;;;;;;;1.92;1.70;;;;;18.30;101814.00;;;;4975669;28;20202;-77
2022/06/03 02:50:52;;;;;;;2.33;1.90;;;;;18.30;101811.00;;;;4984586;28;20897;-77
2022/06/03 02:53:53;;;;;;;2.20;1.67;;;;;18.30;101801.00;;;;5051561;28;20218;-77
2022/06/03 02:56:48;;;;;;;2.58;2.00;;;;;18.30;101809.00;;;;5060335;28;20199;-77
2022/06/03 02:59:46;;;;;;;2.05;1.77;;;;;18.30;101800.00;;;;5047609;28;20195;-76
2022/06/03 03:02:37;;;;;;;1.88;1.73;;;;;18.20;101803.00;;;;5054105;28;20235;-77
2022/06/03 03:05:31;;;;;;;4.18;2.20;;;;;18.30;101798.00;;;;5056555;28;20192;-77
2022/06/03 03:08:34;;;;;;;3.55;2.05;;;;;18.20;101805.00;;;;5048206;28;20215;-77
2022/06/03 03:11:29;;;;;;;3.42;2.10;;;;;18.20;101807.00;;;;5069289;28;20203;-76
2022/06/03 03:14:25;;;;;;;2.58;1.67;;;;;18.20;101811.00;;;;5025748;28;20250;-78
2022/06/03 03:17:23;;;;;;;2.03;1.67;;;;;18.20;101804.00;;;;5057874;28;20195;-78
2022/06/03 03:20:20;;;;;;;2.30;2.10;;;;;18.20;101797.00;;;;5058475;28;20195;-78
2022/06/03 03:23:08;;;;;;;2.55;1.50;;;;;18.20;101791.00;;;;5068946;28;20191;-78
2022/06/03 03:25:54;;;;;;;3.60;1.85;;;;;18.10;101795.00;;;;5069959;28;20187;-77
2022/06/03 03:28:52;;;;;;;4.30;2.10;;;;;18.20;101801.00;;;;5065376;28;20206;-78
2022/06/03 03:31:58;;;;;;;2.97;1.88;;;;;18.10;101794.00;;;;4980775;28;20335;-78
2022/06/03 03:34:51;;;;;;;1.85;1.65;;;;;18.10;101793.00;;;;5009124;28;20206;-76
2022/06/03 03:37:49;;;;;;;2.50;2.00;;;;;18.10;101797.00;;;;5050807;28;21037;-77
2022/06/03 03:41:09;;;;;;;2.22;2.03;;;;;18.00;101801.00;;;;5059360;28;20286;-77
2022/06/03 03:44:06;;;;;;;3.10;2.00;;;;;18.00;101811.00;;;;5063029;28;20230;-77
2022/06/03 03:47:09;;;;;;;1.85;1.75;;;;;18.00;101791.00;;;;5069211;28;20829;-77
2022/06/03 03:50:14;;;;;;;1.98;1.88;;;;;18.00;101791.00;;;;5055875;28;20204;-77
2022/06/03 03:53:29;;;;;;;4.45;1.92;;;;;18.00;101786.00;;;;5062349;28;20253;-77
2022/06/03 03:56:56;;;;;;;2.70;1.83;;;;;18.00;101782.00;;;;5062253;28;20728;-77
2022/06/03 04:00:02;;;;;;;3.05;1.98;;;;;18.00;101777.00;;;;4971031;28;20244;-77
2022/06/03 04:02:56;;;;;;;3.58;1.80;;;;;18.00;101784.00;;;;4974818;28;20256;-76
2022/06/03 04:05:55;;;;;;;2.40;1.95;;;;;18.00;101781.00;;;;5060341;28;20198;-77
2022/06/03 04:08:46;;;;;;;2.15;1.90;;;;;18.00;101784.00;;;;5069436;28;20719;-77
2022/06/03 04:11:49;;;;;;;5.03;2.00;;;;;18.00;101778.00;;;;5069710;28;20194;-78
2022/06/03 04:15:02;;;;;;;2.28;1.90;;;;;18.00;101774.00;;;;5060735;28;20239;-77
2022/06/03 04:18:02;;;;;;;2.20;1.92;;;;;18.00;101770.00;;;;5060891;28;20680;-77
2022/06/03 04:20:54;;;;;;;2.85;2.20;;;;;18.00;101770.00;;;;5057938;28;20194;-77
2022/06/03 04:23:58;;;;;;;2.67;2.03;;;;;18.00;101765.00;;;;5066769;28;20203;-77
2022/06/03 04:27:00;;;;;;;4.15;2.15;;;;;18.00;101765.00;;;;5069190;28;20194;-77
2022/06/03 04:30:06;;;;;;;3.65;2.30;;;;;18.00;101758.00;;;;5026143;28;20198;-77
2022/06/03 04:33:10;;;;;;;2.95;1.92;;;;;18.00;101748.00;;;;4987601;28;20206;-77
2022/06/03 04:36:14;;;;;;;4.85;2.47;;;;;18.10;101757.00;;;;5053464;28;20211;-78
2022/06/03 04:39:15;;;;;;;4.65;2.13;;;;;18.10;101757.00;;;;5045236;28;20195;-78
2022/06/03 04:42:39;;;;;;;2.80;2.35;;;;;18.10;101757.00;;;;5062732;28;20221;-77
2022/06/03 04:46:08;;;;;;;2.85;2.17;;;;;18.20;101759.00;;;;5066738;28;20199;-76
2022/06/03 04:49:20;;;;;;;2.20;1.98;;;;;18.20;101750.00;;;;5066128;28;20200;-77
2022/06/03 04:52:27;;;;;;;3.03;2.28;;;;;18.20;101748.00;;;;5055413;28;20191;-77
2022/06/03 04:55:31;;;;;;;3.15;2.45;;;;;18.30;101751.00;;;;5057545;28;20191;-77
2022/06/03 04:58:38;;;;;;;3.50;2.33;;;;;18.30;101754.00;;;;5062263;28;20205;-77
2022/06/03 05:01:38;;;;;;;3.42;2.38;;;;;18.40;101760.00;;;;5062551;28;20220;-77
2022/06/03 05:04:52;;;;;;;3.35;2.40;;;;;18.40;101759.00;;;;5067759;28;20248;-77
2022/06/03 05:08:06;;;;;;;4.95;2.53;;;;;18.50;101763.00;;;;5056706;28;20221;-76
2022/06/03 05:11:39;;;;;;;4.03;2.33;;;;;18.60;101766.00;;;;5054560;28;21225;-77
2022/06/03 05:14:44;;;;;;;4.40;2.50;;;;;18.60;101771.00;;;;5069479;28;20206;-77
2022/06/03 05:17:42;;;;;;;3.00;2.70;;;;;18.70;101761.00;;;;5049782;28;20191;-77
2022/06/03 05:20:31;;;;;;;3.65;2.67;;;;;18.80;101764.00;;;;5054314;28;20283;-76
2022/06/03 05:23:34;;;;;;;2.60;2.40;;;;;18.90;101759.00;;;;5054124;28;20227;-77
2022/06/03 05:26:48;;;;;;;4.15;2.58;;;;;19.00;101758.00;;;;5048816;28;20226;-78
2022/06/03 05:29:43;;;;;;;4.07;2.55;;;;;19.10;101758.00;;;;5065487;28;20547;-77
2022/06/03 05:32:42;;;;;;;2.50;2.30;;;;;19.20;101768.00;;;;5050178;28;20579;-77
2022/06/03 05:35:45;;;;;;;2.75;2.10;;;;;19.20;101771.00;;;;5026333;28;20214;-77
2022/06/03 05:38:48;;;;;;;5.95;2.55;;;;;19.30;101761.00;;;;5050889;28;20210;-77
2022/06/03 05:44:50;;;;;;;2.33;2.13;;;;;19.50;101764.00;;;;5052485;28;20193;-79
2022/06/03 05:47:25;;;;;;;5.00;2.30;;;;;19.70;101758.00;;;;5049124;28;20200;-77
2022/06/03 05:50:00;;;;;;;3.75;2.72;;;;;19.70;101765.00;;;;5054147;28;20203;-79
2022/06/03 05:52:39;;;;;;;2.63;2.42;;;;;19.80;101761.00;;;;5060161;28;20205;-76
2022/06/03 05:55:22;;;;;;;3.20;2.90;;;;;19.90;101770.00;;;;5068088;28;20199;-76
2022/06/03 05:58:06;;;;;;;3.15;2.10;;;;;20.00;101762.00;;;;5068139;28;20191;-78
2022/06/03 06:00:56;;;;;;;3.10;2.33;;;;;20.00;101769.00;;;;5064644;28;20201;-76
2022/06/03 06:03:36;;;;;;;6.68;2.40;;;;;20.10;101757.00;;;;5053862;28;20222;-77
2022/06/03 06:06:21;;;;;;;2.55;1.98;;;;;20.20;101769.00;;;;5054290;28;20669;-82
2022/06/03 06:08:59;;;;;;;3.28;2.63;;;;;20.30;101761.00;;;;5054872;28;20223;-78
2022/06/03 06:11:38;;;;;;;2.92;2.10;;;;;20.40;101763.00;;;;5054129;28;20225;-76
2022/06/03 06:14:23;;;;;;;2.30;2.10;;;;;20.50;101762.00;;;;5067657;28;20194;-76
2022/06/03 06:16:52;;;;;;;2.63;2.08;;;;;20.60;101763.00;;;;5068330;28;20195;-76
2022/06/03 06:19:39;;;;;;;2.60;2.40;;;;;20.70;101767.00;;;;5067807;28;21972;-76
2022/06/03 06:22:16;;;;;;;3.03;2.22;;;;;20.80;101758.00;;;;5067752;28;20223;-76
2022/06/03 06:24:58;;;;;;;2.80;2.42;;;;;20.80;101758.00;;;;5066736;28;20199;-76
2022/06/03 06:27:50;;;;;;;4.68;2.45;;;;;20.90;101759.00;;;;5067549;28;20186;-75
2022/06/03 06:30:26;;;;;;;2.42;2.22;;;;;21.10;101768.00;;;;5066227;28;20203;-75
2022/06/03 06:33:22;;;;;;;5.25;2.75;;;;;21.10;101764.00;;;;5067725;28;20198;-76
2022/06/03 06:36:22;;;;;;;3.78;2.20;;;;;21.10;101767.00;;;;5064779;28;20202;-76
2022/06/03 06:39:01;;;;;;;2.63;2.42;;;;;21.30;101775.00;;;;5037063;28;20195;-76
2022/06/03 06:41:43;;;;;;;2.40;1.77;;;;;21.40;101775.00;;;;5071976;28;20604;-75
2022/06/03 06:44:32;;;;;;;3.15;2.05;;;;;21.50;101766.00;;;;5071784;28;20198;-76
2022/06/03 06:47:09;;;;;;;2.60;2.17;;;;;21.70;101774.00;;;;5071348;28;20195;-76
2022/06/03 06:49:41;;;;;;;4.30;2.70;;;;;21.80;101773.00;;;;5072635;28;20275;-76
2022/06/03 06:52:44;;;;;;;3.72;2.83;;;;;21.80;101781.00;;;;5072124;28;20202;-76
2022/06/03 06:55:20;;;;;;;2.53;2.33;;;;;22.00;101777.00;;;;5005586;28;20210;-76
2022/06/03 06:57:50;;;;;;;3.90;2.13;;;;;22.10;101770.00;;;;5052045;28;20203;-76
2022/06/03 07:00:24;;;;;;;4.55;2.58;;;;;22.20;101766.00;;;;5054583;28;20195;-77
2022/06/03 07:02:56;;;;;;;2.70;2.38;;;;;22.30;101762.00;;;;5059808;28;20407;-77
2022/06/03 07:05:29;;;;;;;2.22;1.77;;;;;22.40;101770.00;;;;5052374;28;20187;-76
2022/06/03 07:08:05;;;;;;;2.97;2.38;;;;;22.60;101772.00;;;;5054105;28;20692;-77
2022/06/03 07:10:39;;;;;;;2.83;2.25;;;;;22.70;101770.00;;;;5066200;28;20195;-77
2022/06/03 07:13:11;;;;;;;4.47;2.50;;;;;22.80;101771.00;;;;5069014;28;20203;-76
2022/06/03 07:15:54;;;;;;;2.53;2.30;;;;;22.90;101764.00;;;;5062111;28;20677;-77
2022/06/03 07:21:23;;;;;;;2.38;2.10;;;;;23.20;101766.00;;;;5066591;28;20656;-75
2022/06/03 07:23:55;;;;;;;2.05;1.85;;;;;23.30;101769.00;;;;5061002;28;20599;-78
2022/06/03 07:26:36;;;;;;;1.85;1.75;;;;;23.30;101764.00;;;;5056068;28;20203;-76
2022/06/03 07:29:17;;;;;;;2.40;2.20;;;;;23.50;101771.00;;;;5070642;28;20194;-76
2022/06/03 07:31:50;;;;;;;6.65;2.00;;;;;23.60;101767.00;;;;5070399;28;20203;-77
2022/06/03 07:34:23;;;;;;;4.47;2.30;;;;;23.80;101781.00;;;;5061675;28;20272;-77
2022/06/03 07:36:57;;;;;;;2.28;1.77;;;;;23.90;101768.00;;;;5059420;28;20195;-77
2022/06/03 07:39:35;;;;;;;4.07;2.67;;;;;24.00;101769.00;;;;5059968;28;20221;-76
2022/06/03 07:42:11;;;;;;;4.38;1.92;;;;;24.00;101765.00;;;;5061154;28;20231;-77
2022/06/03 07:44:51;;;;;;;2.13;1.98;;;;;24.10;101764.00;;;;5066131;28;20206;-77
2022/06/03 07:47:20;;;;;;;2.35;2.15;;;;;24.30;101764.00;;;;5068925;28;20199;-76
2022/06/03 07:49:56;;;;;;;2.67;2.22;;;;;24.40;101765.00;;;;5056297;28;20203;-76
2022/06/03 07:52:34;;;;;;;4.72;2.25;;;;;24.50;101761.00;;;;5070788;28;20199;-76
2022/06/03 07:55:08;;;;;;;2.35;2.15;;;;;24.70;101754.00;;;;5063611;28;20199;-76
2022/06/03 07:57:36;;;;;;;3.10;2.53;;;;;24.80;101755.00;;;;5066259;28;20195;-76
2022/06/03 08:00:12;;;;;;;4.00;2.80;;;;;24.90;101750.00;;;;5055661;28;20198;-77
2022/06/03 08:02:40;;;;;;;2.63;2.38;;;;;25.00;101751.00;;;;5053041;28;20227;-77
2022/06/03 08:05:13;;;;;;;5.60;2.17;;;;;25.10;101749.00;;;;5051083;28;20684;-77
2022/06/03 08:13:16;;;;;;;2.53;2.10;;;;;25.50;101741.00;;;;5068697;28;20193;-77
2022/06/03 08:15:53;;;;;;;3.22;2.13;;;;;25.50;101750.00;;;;5069858;28;20206;-77
2022/06/03 08:18:25;;;;;;;2.80;2.53;;;;;25.60;101756.00;;;;5072099;28;20199;-78
2022/06/03 08:20:55;;;;;;;2.45;2.10;;;;;25.70;101755.00;;;;5059989;28;20202;-77
2022/06/03 08:23:24;;;;;;;2.58;2.17;;;;;25.80;101754.00;;;;5058561;28;20220;-77
2022/06/03 08:25:57;;;;;;;4.90;2.35;;;;;25.90;101744.00;;;;5063478;28;20208;-77
2022/06/03 08:28:28;;;;;;;2.80;2.10;;;;;26.10;101755.00;;;;5069942;28;20207;-77
2022/06/03 08:30:57;;;;;;;3.05;2.45;;;;;26.20;101744.00;;;;5069709;28;20569;-77
2022/06/03 08:33:31;;;;;;;3.53;2.72;;;;;26.30;101745.00;;;;5069269;28;20199;-77
2022/06/03 08:35:59;;;;;;;2.38;2.10;;;;;26.50;101740.00;;;;5060962;28;20203;-77
2022/06/03 08:38:32;;;;;;;2.00;1.60;;;;;26.60;101748.00;;;;5050276;28;20196;-77
2022/06/03 08:41:23;;;;;;;3.17;2.08;;;;;26.70;101729.00;;;;5049309;28;20203;-77
2022/06/03 08:44:07;;;;;;;2.88;2.38;;;;;26.80;101730.00;;;;5057295;28;20235;-77
2022/06/03 08:46:38;;;;;;;2.60;2.17;;;;;27.00;101719.00;;;;5050672;28;20192;-76
2022/06/03 08:49:12;;;;;;;3.40;2.38;;;;;27.10;101722.00;;;;5062041;28;20195;-76
2022/06/03 08:51:45;;;;;;;8.23;2.35;;;;;27.20;101724.00;;;;5059178;28;20199;-76
2022/06/03 08:54:26;;;;;;;3.13;1.95;;;;;27.30;101720.00;;;;5051761;28;20196;-76
2022/06/03 08:56:57;;;;;;;3.70;1.98;;;;;27.50;101724.00;;;;5049441;28;20192;-77
2022/06/03 08:59:30;;;;;;;2.78;2.58;;;;;27.60;101718.00;;;;5050269;28;20200;-76
2022/06/03 09:02:01;;;;;;;9.40;3.53;;;;;27.70;101730.00;;;;5064874;28;20199;-77
2022/06/03 09:04:37;;;;;;;2.42;2.22;;;;;27.70;101731.00;;;;5069089;28;20564;-77
2022/06/03 09:07:10;;;;;;;2.63;2.38;;;;;27.80;101723.00;;;;5053681;28;20223;-77
2022/06/03 09:09:44;;;;;;;3.10;2.00;;;;;27.80;101725.00;;;;5065698;28;20701;-77
2022/06/03 09:12:19;;;;;;;4.22;2.35;;;;;27.90;101723.00;;;;5058911;28;20187;-77
2022/06/03 09:14:49;;;;;;;2.25;2.05;;;;;28.10;101730.00;;;;5054942;28;20183;-76
2022/06/03 09:17:34;;;;;;;2.50;2.20;;;;;28.10;101719.00;;;;5069131;28;20203;-76
2022/06/03 09:20:09;;;;;;;4.30;2.05;;;;;28.30;101729.00;;;;5058374;28;20203;-76
2022/06/03 09:22:38;;;;;;;3.25;2.42;;;;;28.40;101726.00;;;;5069756;28;20219;-77
2022/06/03 09:25:10;;;;;;;2.35;2.00;;;;;28.50;101727.00;;;;5054707;28;20199;-77
2022/06/03 09:27:39;;;;;;;2.47;2.08;;;;;28.60;101722.00;;;;5068571;28;20734;-77
2022/06/03 09:30:09;;;;;;;2.70;1.80;;;;;28.60;101718.00;;;;5056203;28;20285;-76
2022/06/03 09:32:45;;;;;;;6.32;2.00;;;;;28.70;101713.00;;;;5049557;28;20199;-77
2022/06/03 09:35:17;;;;;;;2.45;1.83;;;;;28.70;101715.00;;;;5049695;28;20207;-77
2022/06/03 09:37:48;;;;;;;3.22;1.80;;;;;28.80;101710.00;;;;5068710;28;20232;-77
2022/06/03 09:40:19;;;;;;;3.40;2.40;;;;;28.90;101713.00;;;;5068991;28;20210;-77
2022/06/03 09:42:52;;;;;;;2.70;2.00;;;;;29.00;101715.00;;;;5064395;28;20223;-77
2022/06/03 09:45:20;;;;;;;2.95;1.58;;;;;29.10;101716.00;;;;5049475;28;20199;-76
2022/06/03 09:47:48;;;;;;;3.47;2.20;;;;;29.20;101717.00;;;;5048711;28;20196;-77
2022/06/03 09:50:18;;;;;;;2.97;2.40;;;;;29.20;101715.00;;;;5059833;28;20741;-76
2022/06/03 09:52:48;;;;;;;1.98;1.80;;;;;29.30;101720.00;;;;5055978;28;20195;-77
2022/06/03 09:55:25;;;;;;;6.68;1.80;;;;;29.30;101710.00;;;;5068071;28;20671;-77
2022/06/03 09:57:58;;;;;;;2.65;1.85;;;;;29.40;101722.00;;;;5068856;28;20198;-76
2022/06/03 10:00:29;;;;;;;3.80;1.77;;;;;29.50;101711.00;;;;5065563;28;20203;-77
2022/06/03 10:02:58;;;;;;;1.48;1.38;;;;;29.50;101717.00;;;;5049232;28;20306;-77
2022/06/03 10:05:27;;;;;;;1.30;1.20;;;;;29.60;101707.00;;;;5049983;28;20194;-77
2022/06/03 10:08:01;;;;;;;2.88;1.60;;;;;29.60;101707.00;;;;5048434;28;20223;-77
2022/06/03 10:13:14;;;;;;;2.10;1.33;;;;;29.70;101709.00;;;;5074687;28;20291;-77
2022/06/03 10:15:46;;;;;;;1.52;1.42;;;;;29.70;101714.00;;;;5075533;28;20209;-77
2022/06/03 10:18:24;;;;;;;1.70;1.48;;;;;29.60;101718.00;;;;5073722;28;20195;-77
2022/06/03 10:20:54;;;;;;;1.60;1.50;;;;;29.70;101712.00;;;;5072021;28;20210;-77
2022/06/03 10:23:24;;;;;;;1.90;1.63;;;;;29.70;101707.00;;;;5072474;28;20253;-77
2022/06/03 10:25:52;;;;;;;2.22;1.50;;;;;29.70;101715.00;;;;5057683;28;20195;-77
2022/06/03 10:28:20;;;;;;;2.53;1.50;;;;;29.80;101697.00;;;;5054433;28;20340;-77
2022/06/03 10:31:00;;;;;;;2.35;1.00;;;;;29.70;101707.00;;;;5054340;28;20290;-77
2022/06/03 10:33:28;;;;;;;1.50;1.40;;;;;29.80;101705.00;;;;5074085;28;20210;-77
2022/06/03 10:36:00;;;;;;;1.30;1.10;;;;;29.80;101703.00;;;;5075599;28;20591;-77
2022/06/03 10:38:29;;;;;;;2.65;1.52;;;;;29.90;101688.00;;;;5054324;28;20195;-77
2022/06/03 10:40:57;;;;;;;1.42;1.33;;;;;29.90;101682.00;;;;5054430;28;20302;-77
2022/06/03 10:43:30;;;;;;;1.40;1.20;;;;;29.90;101680.00;;;;5054828;28;20234;-77
2022/06/03 10:46:09;;;;;;;1.30;1.17;;;;;29.90;101678.00;;;;5055148;28;20292;-77
2022/06/03 10:48:36;;;;;;;1.77;1.15;;;;;30.00;101676.00;;;;5068695;28;20194;-76
2022/06/03 11:01:06;;;;;;;0.93;0.88;;;;;29.90;101669.00;;;;5070879;28;20213;-76
2022/06/03 11:02:32;;;;;;;1.77;0.98;;;;;30.00;101676.00;;;;5059441;28;20260;-78
2022/06/03 11:05:21;;;;;;;0.80;0.80;;;;;29.90;101674.00;;;;5074410;28;20206;-77
2022/06/03 11:07:59;;;;;;;1.70;0.90;;;;;30.00;101675.00;;;;5056353;28;20736;-77
2022/06/03 11:10:32;;;;;;;3.28;1.15;;;;;30.00;101669.00;;;;5075413;28;20564;-77
2022/06/03 11:13:00;;;;;;;1.27;1.17;;;;;30.10;101666.00;;;;5076336;28;20199;-77
2022/06/03 11:15:35;;;;;;;1.17;0.88;;;;;30.00;101655.00;;;;5075766;28;20606;-77
2022/06/03 11:18:15;;;;;;;1.27;0.70;;;;;29.90;101655.00;;;;5059041;28;20186;-77
2022/06/03 11:20:44;;;;;;;1.65;1.20;;;;;30.10;101655.00;;;;5073920;28;20260;-77
2022/06/03 11:23:14;;;;;;;1.10;1.00;;;;;30.00;101649.00;;;;5071350;28;20226;-77
2022/06/03 11:25:44;;;;;;;1.38;1.27;;;;;30.10;101653.00;;;;5072059;28;20210;-76
2022/06/03 11:28:16;;;;;;;2.22;1.40;;;;;30.10;101660.00;;;;5066533;28;20263;-77
2022/06/03 11:30:48;;;;;;;1.40;0.98;;;;;30.10;101656.00;;;;5053226;28;20206;-77
2022/06/03 11:33:20;;;;;;;0.90;0.90;;;;;30.10;101648.00;;;;5056125;28;20539;-77
2022/06/03 11:35:53;;;;;;;1.25;0.82;;;;;30.10;101655.00;;;;5058985;28;20564;-76
2022/06/03 11:38:28;;;;;;;1.25;1.02;;;;;30.20;101652.00;;;;5051158;28;20211;-76
2022/06/03 11:40:59;;;;;;;1.45;1.15;;;;;30.20;101649.00;;;;5062557;28;20290;-77
2022/06/03 11:43:34;;;;;;;0.80;0.75;;;;;30.20;101652.00;;;;5070372;28;20227;-77
2022/06/03 11:46:06;;;;;;;4.57;1.30;;;;;30.20;101641.00;;;;5068323;28;20198;-76
2022/06/03 11:48:37;;;;;;;1.15;1.00;;;;;30.20;101642.00;;;;5070942;28;20202;-77
2022/06/03 11:51:05;;;;;;;1.10;1.00;;;;;30.20;101644.00;;;;5057166;28;20219;-77
2022/06/03 11:53:47;;;;;;;3.85;1.15;;;;;30.20;101646.00;;;;5052826;28;20188;-77
2022/06/03 11:56:17;;;;;;;2.08;1.02;;;;;30.20;101644.00;;;;5050634;28;20286;-76
2022/06/03 11:58:55;;;;;;;2.00;1.10;;;;;30.20;101645.00;;;;5059134;28;20191;-76
2022/06/03 12:01:31;;;;;;;1.05;0.95;;;;;30.20;101647.00;;;;5059075;28;20203;-75
2022/06/03 12:04:04;;;;;;;3.35;1.00;;;;;30.20;101638.00;;;;5063497;28;20229;-75
2022/06/03 12:06:38;;;;;;;1.40;1.00;;;;;30.20;101638.00;;;;5057896;28;20210;-77
2022/06/03 12:09:17;;;;;;;1.77;1.40;;;;;30.20;101643.00;;;;5059013;28;20210;-77
2022/06/03 12:14:41;;;;;;;1.30;1.00;;;;;30.30;101649.00;;;;5054635;28;20342;-76
2022/06/03 12:17:28;;;;;;;2.47;1.00;;;;;30.20;101657.00;;;;5054662;28;20199;-76
2022/06/03 12:19:56;;;;;;;1.17;1.08;;;;;30.30;101661.00;;;;5055126;28;20239;-76
2022/06/03 12:22:42;;;;;;;1.58;1.23;;;;;30.30;101667.00;;;;5070273;28;20195;-76
2022/06/03 12:26:05;;;;;;;1.25;1.15;;;;;30.30;101655.00;;;;5068496;28;20230;-76
2022/06/03 12:28:35;;;;;;;0.80;0.70;;;;;30.40;101652.00;;;;5053985;28;20188;-76
2022/06/03 12:31:07;;;;;;;1.00;1.00;;;;;30.40;101648.00;;;;5061387;28;20934;-76
2022/06/03 12:33:45;;;;;;;1.45;1.30;;;;;30.40;101652.00;;;;5064074;28;20200;-77
2022/06/03 12:36:38;;;;;;;0.90;0.85;;;;;30.30;101652.00;;;;5055828;28;20197;-76
2022/06/03 12:39:22;;;;;;;2.70;0.90;;;;;30.30;101659.00;;;;5050954;28;20200;-76
2022/06/03 12:42:11;;;;;;;1.17;1.08;;;;;30.30;101652.00;;;;5049783;28;20200;-75
2022/06/03 12:44:51;;;;;;;1.23;1.13;;;;;30.40;101659.00;;;;5050354;28;20712;-75
2022/06/03 12:47:44;;;;;;;1.40;1.02;;;;;30.30;101659.00;;;;5061566;28;20198;-75
2022/06/03 12:50:36;;;;;;;1.00;0.90;;;;;30.20;101643.00;;;;5063594;28;20206;-76
2022/06/03 12:53:22;;;;;;;2.28;1.08;;;;;30.30;101652.00;;;;5050255;28;20203;-79
2022/06/03 12:55:56;;;;;;;0.85;0.80;;;;;30.30;101652.00;;;;5064469;28;20203;-79
2022/06/03 12:58:40;;;;;;;1.73;1.05;;;;;30.30;101660.00;;;;5069528;28;20195;-80
2022/06/03 13:01:09;;;;;;;1.38;1.13;;;;;30.30;101659.00;;;;5060407;28;20202;-80
2022/06/03 13:03:42;;;;;;;1.48;1.10;;;;;30.20;101641.00;;;;5062041;28;20317;-80
2022/06/03 13:06:10;;;;;;;2.13;1.15;;;;;30.30;101644.00;;;;5068816;28;20695;-80
2022/06/03 13:11:43;;;;;;;0.88;0.88;;;;;30.10;101634.00;;;;5067377;28;20290;-80
2022/06/03 13:14:27;;;;;;;2.15;1.20;;;;;30.10;101637.00;;;;5059570;28;20211;-77
2022/06/03 13:16:55;;;;;;;1.10;1.00;;;;;30.20;101640.00;;;;5064680;28;20196;-78
2022/06/03 13:19:46;;;;;;;1.27;1.17;;;;;30.00;101641.00;;;;5059875;28;20202;-78
2022/06/03 13:22:26;;;;;;;1.17;1.08;;;;;30.10;101632.00;;;;5064340;28;20924;-78
2022/06/03 13:25:29;;;;;;;1.83;1.17;;;;;30.00;101648.00;;;;5068666;28;20230;-80
2022/06/03 13:28:38;;;;;;;1.58;1.13;;;;;29.90;101638.00;;;;5068260;28;20560;-79
2022/06/03 13:31:13;;;;;;;2.50;0.95;;;;;30.00;101642.00;;;;5055204;28;20205;-77
2022/06/03 13:34:14;;;;;;;1.30;1.20;;;;;29.90;101638.00;;;;5076354;28;20201;-79
2022/06/03 13:36:47;;;;;;;2.45;1.35;;;;;30.00;101636.00;;;;5065291;28;20194;-78
2022/06/03 13:39:31;;;;;;;2.72;1.30;;;;;30.00;101639.00;;;;5063295;28;20199;-77
2022/06/03 13:45:14;;;;;;;4.68;1.30;;;;;29.90;101629.00;;;;5061172;28;20674;-79
2022/06/03 13:47:52;;;;;;;2.50;1.20;;;;;30.00;101635.00;;;;5063612;28;20574;-79
2022/06/03 13:50:31;;;;;;;1.30;1.17;;;;;30.00;101642.00;;;;5064651;28;20191;-79
2022/06/03 13:53:02;;;;;;;1.15;1.05;;;;;30.00;101632.00;;;;5060521;28;20203;-78
2022/06/03 13:55:49;;;;;;;1.13;0.90;;;;;30.00;101631.00;;;;5061944;28;20192;-78
2022/06/03 13:58:19;;;;;;;1.08;1.05;;;;;30.10;101628.00;;;;5052539;28;20618;-79
2022/06/03 14:00:59;;;;;;;2.35;1.10;;;;;30.00;101629.00;;;;5054862;28;20962;-78
2022/06/03 14:03:34;;;;;;;2.60;0.95;;;;;30.10;101636.00;;;;5056175;28;20276;-75
2022/06/03 14:06:08;;;;;;;1.40;1.10;;;;;30.00;101635.00;;;;5054804;28;20199;-77
2022/06/03 14:08:41;;;;;;;2.70;1.05;;;;;30.00;101632.00;;;;5064688;28;20217;-78
2022/06/03 14:11:15;;;;;;;1.27;1.10;;;;;30.00;101618.00;;;;5065830;28;20207;-79